sensor_id;sensor_type;location;lat;lon;timestamp;temperature;humidity
51996;DHT22;38010;53.264;6.592;2022-08-18T00:01:15;24.20;99.90
51996;DHT22;38010;53.264;6.592;2022-08-18T00:03:42;24.20;99.90
51996;DHT22;38010;53.264;6.592;2022-08-18T00:06:08;24.20;99.90
51996;DHT22;38010;53.264;6.592;2022-08-18T00:08:34;24.20;99.90
51996;DHT22;38010;53.264;6.592;2022-08-18T00:11:00;24.20;99.90
51996;DHT22;38010;53.264;6.592;2022-08-18T00:13:25;24.20;99.90
51996;DHT22;38010;53.264;6.592;2022-08-18T00:15:51;24.10;99.90
51996;DHT22;38010;53.264;6.592;2022-08-18T00:18:17;24.20;99.90
51996;DHT22;38010;53.264;6.592;2022-08-18T00:20:43;24.20;99.90
51996;DHT22;38010;53.264;6.592;2022-08-18T00:23:09;24.20;99.90
51996;DHT22;38010;53.264;6.592;2022-08-18T00:25:34;24.10;99.90
51996;DHT22;38010;53.264;6.592;2022-08-18T00:28:00;24.20;99.90
51996;DHT22;38010;53.264;6.592;2022-08-18T00:30:27;24.20;99.90
51996;DHT22;38010;53.264;6.592;2022-08-18T00:32:55;24.10;99.90
51996;DHT22;38010;53.264;6.592;2022-08-18T00:35:24;24.10;99.90
51996;DHT22;38010;53.264;6.592;2022-08-18T00:37:52;24.10;99.90
51996;DHT22;38010;53.264;6.592;2022-08-18T00:40:21;24.10;99.90
51996;DHT22;38010;53.264;6.592;2022-08-18T00:42:51;24.10;99.90
51996;DHT22;38010;53.264;6.592;2022-08-18T00:45:23;24.10;99.90
51996;DHT22;38010;53.264;6.592;2022-08-18T00:47:50;24.10;99.90
51996;DHT22;38010;53.264;6.592;2022-08-18T00:50:32;24.10;99.90
51996;DHT22;38010;53.264;6.592;2022-08-18T00:53:04;24.10;99.90
51996;DHT22;38010;53.264;6.592;2022-08-18T00:55:31;24.10;99.90
51996;DHT22;38010;53.264;6.592;2022-08-18T00:58:12;24.10;99.90
51996;DHT22;38010;53.264;6.592;2022-08-18T01:00:41;24.10;99.90
51996;DHT22;38010;53.264;6.592;2022-08-18T01:03:12;24.10;99.90
51996;DHT22;38010;53.264;6.592;2022-08-18T01:05:42;24.10;99.90
51996;DHT22;38010;53.264;6.592;2022-08-18T01:08:12;24.10;99.90
51996;DHT22;38010;53.264;6.592;2022-08-18T01:10:41;24.10;99.90
51996;DHT22;38010;53.264;6.592;2022-08-18T01:13:08;24.10;99.90
51996;DHT22;38010;53.264;6.592;2022-08-18T01:15:35;24.10;99.90
51996;DHT22;38010;53.264;6.592;2022-08-18T01:18:04;24.10;99.90
51996;DHT22;38010;53.264;6.592;2022-08-18T01:20:58;24.10;99.90
51996;DHT22;38010;53.264;6.592;2022-08-18T01:23:44;24.00;99.90
51996;DHT22;38010;53.264;6.592;2022-08-18T01:26:10;24.10;99.90
51996;DHT22;38010;53.264;6.592;2022-08-18T01:28:40;24.10;99.90
51996;DHT22;38010;53.264;6.592;2022-08-18T01:31:07;24.10;99.90
51996;DHT22;38010;53.264;6.592;2022-08-18T01:33:39;24.10;99.90
51996;DHT22;38010;53.264;6.592;2022-08-18T01:36:12;24.00;99.90
51996;DHT22;38010;53.264;6.592;2022-08-18T01:38:39;24.00;99.90
51996;DHT22;38010;53.264;6.592;2022-08-18T01:41:05;24.00;99.90
51996;DHT22;38010;53.264;6.592;2022-08-18T01:43:33;24.00;99.90
51996;DHT22;38010;53.264;6.592;2022-08-18T01:46:00;24.00;99.90
51996;DHT22;38010;53.264;6.592;2022-08-18T01:48:29;24.00;99.90
51996;DHT22;38010;53.264;6.592;2022-08-18T01:50:58;24.10;99.90
51996;DHT22;38010;53.264;6.592;2022-08-18T01:53:24;24.00;99.90
51996;DHT22;38010;53.264;6.592;2022-08-18T01:55:50;24.00;99.90
51996;DHT22;38010;53.264;6.592;2022-08-18T01:58:16;24.00;99.90
51996;DHT22;38010;53.264;6.592;2022-08-18T02:00:42;24.00;99.90
51996;DHT22;38010;53.264;6.592;2022-08-18T02:03:10;24.00;99.90
51996;DHT22;38010;53.264;6.592;2022-08-18T02:05:42;24.00;99.90
51996;DHT22;38010;53.264;6.592;2022-08-18T02:08:08;24.00;99.90
51996;DHT22;38010;53.264;6.592;2022-08-18T02:10:37;24.00;99.90
51996;DHT22;38010;53.264;6.592;2022-08-18T02:13:03;24.00;99.90
51996;DHT22;38010;53.264;6.592;2022-08-18T02:15:30;24.00;99.90
51996;DHT22;38010;53.264;6.592;2022-08-18T02:17:56;24.00;99.90
51996;DHT22;38010;53.264;6.592;2022-08-18T02:20:22;24.00;99.90
51996;DHT22;38010;53.264;6.592;2022-08-18T02:22:48;24.00;99.90
51996;DHT22;38010;53.264;6.592;2022-08-18T02:25:15;24.00;99.90
51996;DHT22;38010;53.264;6.592;2022-08-18T02:27:41;23.90;99.90
51996;DHT22;38010;53.264;6.592;2022-08-18T02:30:10;24.00;99.90
51996;DHT22;38010;53.264;6.592;2022-08-18T02:32:36;24.00;99.90
51996;DHT22;38010;53.264;6.592;2022-08-18T02:35:04;23.90;99.90
51996;DHT22;38010;53.264;6.592;2022-08-18T02:37:31;24.00;99.90
51996;DHT22;38010;53.264;6.592;2022-08-18T02:39:56;23.90;99.90
51996;DHT22;38010;53.264;6.592;2022-08-18T02:42:22;23.90;99.90
51996;DHT22;38010;53.264;6.592;2022-08-18T02:44:48;23.90;99.90
51996;DHT22;38010;53.264;6.592;2022-08-18T02:47:14;23.90;99.90
51996;DHT22;38010;53.264;6.592;2022-08-18T02:49:39;24.00;99.90
51996;DHT22;38010;53.264;6.592;2022-08-18T02:52:06;23.90;99.90
51996;DHT22;38010;53.264;6.592;2022-08-18T02:54:32;23.90;99.90
51996;DHT22;38010;53.264;6.592;2022-08-18T02:56:57;23.90;99.90
51996;DHT22;38010;53.264;6.592;2022-08-18T02:59:25;23.90;99.90
51996;DHT22;38010;53.264;6.592;2022-08-18T03:01:54;23.90;99.90
51996;DHT22;38010;53.264;6.592;2022-08-18T03:04:24;23.90;99.90
51996;DHT22;38010;53.264;6.592;2022-08-18T03:06:55;23.90;99.90
51996;DHT22;38010;53.264;6.592;2022-08-18T03:09:21;23.90;99.90
51996;DHT22;38010;53.264;6.592;2022-08-18T03:11:47;23.90;99.90
51996;DHT22;38010;53.264;6.592;2022-08-18T03:14:14;23.90;99.90
51996;DHT22;38010;53.264;6.592;2022-08-18T03:16:44;23.90;99.90
51996;DHT22;38010;53.264;6.592;2022-08-18T03:19:11;23.90;99.90
51996;DHT22;38010;53.264;6.592;2022-08-18T03:21:39;23.90;99.90
51996;DHT22;38010;53.264;6.592;2022-08-18T03:24:05;23.90;99.90
51996;DHT22;38010;53.264;6.592;2022-08-18T03:26:32;23.90;99.90
51996;DHT22;38010;53.264;6.592;2022-08-18T03:28:59;23.90;99.90
51996;DHT22;38010;53.264;6.592;2022-08-18T03:31:27;23.90;99.90
51996;DHT22;38010;53.264;6.592;2022-08-18T03:33:57;23.90;99.90
51996;DHT22;38010;53.264;6.592;2022-08-18T03:36:25;23.90;99.90
51996;DHT22;38010;53.264;6.592;2022-08-18T03:38:52;23.90;99.90
51996;DHT22;38010;53.264;6.592;2022-08-18T03:41:20;23.90;99.90
51996;DHT22;38010;53.264;6.592;2022-08-18T03:43:48;23.90;99.90
51996;DHT22;38010;53.264;6.592;2022-08-18T03:46:15;23.90;99.90
51996;DHT22;38010;53.264;6.592;2022-08-18T03:48:42;23.90;99.90
51996;DHT22;38010;53.264;6.592;2022-08-18T03:51:24;23.80;99.90
51996;DHT22;38010;53.264;6.592;2022-08-18T03:53:51;23.80;99.90
51996;DHT22;38010;53.264;6.592;2022-08-18T03:56:20;23.90;99.90
51996;DHT22;38010;53.264;6.592;2022-08-18T03:58:54;23.90;99.90
51996;DHT22;38010;53.264;6.592;2022-08-18T04:01:23;23.80;99.90
51996;DHT22;38010;53.264;6.592;2022-08-18T04:03:54;23.90;99.90
51996;DHT22;38010;53.264;6.592;2022-08-18T04:06:30;23.80;99.90
51996;DHT22;38010;53.264;6.592;2022-08-18T04:08:58;23.80;99.90
51996;DHT22;38010;53.264;6.592;2022-08-18T04:11:25;23.90;99.90
51996;DHT22;38010;53.264;6.592;2022-08-18T04:13:53;23.90;99.90
51996;DHT22;38010;53.264;6.592;2022-08-18T04:16:19;23.90;99.90
51996;DHT22;38010;53.264;6.592;2022-08-18T04:18:44;23.80;99.90
51996;DHT22;38010;53.264;6.592;2022-08-18T04:21:11;23.80;99.90
51996;DHT22;38010;53.264;6.592;2022-08-18T04:23:38;23.90;99.90
51996;DHT22;38010;53.264;6.592;2022-08-18T04:26:06;23.80;99.90
51996;DHT22;38010;53.264;6.592;2022-08-18T04:28:32;23.80;99.90
51996;DHT22;38010;53.264;6.592;2022-08-18T04:30:58;23.80;99.90
51996;DHT22;38010;53.264;6.592;2022-08-18T04:33:25;23.80;99.90
51996;DHT22;38010;53.264;6.592;2022-08-18T04:35:52;23.80;99.90
51996;DHT22;38010;53.264;6.592;2022-08-18T04:38:18;23.80;99.90
51996;DHT22;38010;53.264;6.592;2022-08-18T04:40:44;23.80;99.90
51996;DHT22;38010;53.264;6.592;2022-08-18T04:43:09;23.80;99.90
51996;DHT22;38010;53.264;6.592;2022-08-18T04:45:41;23.80;99.90
51996;DHT22;38010;53.264;6.592;2022-08-18T04:48:06;23.80;99.90
51996;DHT22;38010;53.264;6.592;2022-08-18T04:50:32;23.80;99.90
51996;DHT22;38010;53.264;6.592;2022-08-18T04:53:00;23.80;99.90
51996;DHT22;38010;53.264;6.592;2022-08-18T04:55:52;23.80;99.90
51996;DHT22;38010;53.264;6.592;2022-08-18T04:58:21;23.80;99.90
51996;DHT22;38010;53.264;6.592;2022-08-18T05:00:58;23.80;99.90
51996;DHT22;38010;53.264;6.592;2022-08-18T05:03:25;23.80;99.90
51996;DHT22;38010;53.264;6.592;2022-08-18T05:05:55;23.80;99.90
51996;DHT22;38010;53.264;6.592;2022-08-18T05:08:23;23.80;99.90
51996;DHT22;38010;53.264;6.592;2022-08-18T05:10:56;23.70;99.90
51996;DHT22;38010;53.264;6.592;2022-08-18T05:13:22;23.80;99.90
51996;DHT22;38010;53.264;6.592;2022-08-18T05:15:52;23.70;99.90
51996;DHT22;38010;53.264;6.592;2022-08-18T05:18:18;23.70;99.90
51996;DHT22;38010;53.264;6.592;2022-08-18T05:20:52;23.80;99.90
51996;DHT22;38010;53.264;6.592;2022-08-18T05:23:21;23.70;99.90
51996;DHT22;38010;53.264;6.592;2022-08-18T05:25:47;23.80;99.90
51996;DHT22;38010;53.264;6.592;2022-08-18T05:28:14;23.80;99.90
51996;DHT22;38010;53.264;6.592;2022-08-18T05:30:40;23.70;99.90
51996;DHT22;38010;53.264;6.592;2022-08-18T05:33:07;23.70;99.90
51996;DHT22;38010;53.264;6.592;2022-08-18T05:35:42;23.70;99.90
51996;DHT22;38010;53.264;6.592;2022-08-18T05:38:25;23.70;99.90
51996;DHT22;38010;53.264;6.592;2022-08-18T05:41:22;23.70;99.90
51996;DHT22;38010;53.264;6.592;2022-08-18T05:43:50;23.70;99.90
51996;DHT22;38010;53.264;6.592;2022-08-18T05:46:16;23.70;99.90
51996;DHT22;38010;53.264;6.592;2022-08-18T05:48:42;23.70;99.90
51996;DHT22;38010;53.264;6.592;2022-08-18T05:51:24;23.70;99.90
51996;DHT22;38010;53.264;6.592;2022-08-18T05:53:52;23.70;99.90
51996;DHT22;38010;53.264;6.592;2022-08-18T05:56:37;23.70;99.90
51996;DHT22;38010;53.264;6.592;2022-08-18T05:59:24;23.70;99.90
51996;DHT22;38010;53.264;6.592;2022-08-18T06:02:05;23.70;99.90
51996;DHT22;38010;53.264;6.592;2022-08-18T06:04:49;23.70;99.90
51996;DHT22;38010;53.264;6.592;2022-08-18T06:07:20;23.70;99.90
51996;DHT22;38010;53.264;6.592;2022-08-18T06:09:53;23.70;99.90
51996;DHT22;38010;53.264;6.592;2022-08-18T06:12:29;23.70;99.90
51996;DHT22;38010;53.264;6.592;2022-08-18T06:15:07;23.70;99.90
51996;DHT22;38010;53.264;6.592;2022-08-18T06:20:20;23.70;99.90
51996;DHT22;38010;53.264;6.592;2022-08-18T06:23:14;23.70;99.90
51996;DHT22;38010;53.264;6.592;2022-08-18T06:29:05;23.70;99.90
51996;DHT22;38010;53.264;6.592;2022-08-18T06:31:44;23.70;99.90
51996;DHT22;38010;53.264;6.592;2022-08-18T06:37:03;23.70;99.90
51996;DHT22;38010;53.264;6.592;2022-08-18T06:39:44;23.70;99.90
51996;DHT22;38010;53.264;6.592;2022-08-18T06:42:10;23.70;99.90
51996;DHT22;38010;53.264;6.592;2022-08-18T06:45:10;23.70;99.90
51996;DHT22;38010;53.264;6.592;2022-08-18T06:48:15;23.70;99.90
51996;DHT22;38010;53.264;6.592;2022-08-18T06:50:49;23.70;99.90
51996;DHT22;38010;53.264;6.592;2022-08-18T06:53:16;23.60;99.90
51996;DHT22;38010;53.264;6.592;2022-08-18T06:55:48;23.70;99.90
51996;DHT22;38010;53.264;6.592;2022-08-18T07:00:54;23.60;99.90
51996;DHT22;38010;53.264;6.592;2022-08-18T07:08:35;23.60;99.90
51996;DHT22;38010;53.264;6.592;2022-08-18T07:11:18;23.60;99.90
51996;DHT22;38010;53.264;6.592;2022-08-18T07:13:49;23.70;99.90
51996;DHT22;38010;53.264;6.592;2022-08-18T07:16:22;23.60;99.90
51996;DHT22;38010;53.264;6.592;2022-08-18T07:18:48;23.60;99.90
51996;DHT22;38010;53.264;6.592;2022-08-18T07:21:28;23.70;99.90
51996;DHT22;38010;53.264;6.592;2022-08-18T07:24:00;23.60;99.90
51996;DHT22;38010;53.264;6.592;2022-08-18T07:26:26;23.60;99.90
51996;DHT22;38010;53.264;6.592;2022-08-18T07:28:52;23.60;99.90
51996;DHT22;38010;53.264;6.592;2022-08-18T07:34:01;23.60;99.90
51996;DHT22;38010;53.264;6.592;2022-08-18T07:36:32;23.60;99.90
51996;DHT22;38010;53.264;6.592;2022-08-18T07:39:07;23.60;99.90
51996;DHT22;38010;53.264;6.592;2022-08-18T07:41:47;23.60;99.90
51996;DHT22;38010;53.264;6.592;2022-08-18T07:44:19;23.60;99.90
51996;DHT22;38010;53.264;6.592;2022-08-18T07:47:11;23.60;99.90
51996;DHT22;38010;53.264;6.592;2022-08-18T07:49:40;23.60;99.90
51996;DHT22;38010;53.264;6.592;2022-08-18T07:52:24;23.60;99.90
51996;DHT22;38010;53.264;6.592;2022-08-18T07:57:51;23.60;99.90
51996;DHT22;38010;53.264;6.592;2022-08-18T08:00:22;23.60;99.90
51996;DHT22;38010;53.264;6.592;2022-08-18T08:13:34;23.60;99.90
51996;DHT22;38010;53.264;6.592;2022-08-18T08:16:14;23.60;99.90
51996;DHT22;38010;53.264;6.592;2022-08-18T08:21:20;23.60;99.90
51996;DHT22;38010;53.264;6.592;2022-08-18T08:24:12;23.60;99.90
51996;DHT22;38010;53.264;6.592;2022-08-18T08:27:15;23.60;99.90
51996;DHT22;38010;53.264;6.592;2022-08-18T08:32:27;23.60;99.90
51996;DHT22;38010;53.264;6.592;2022-08-18T08:34:59;23.60;99.90
51996;DHT22;38010;53.264;6.592;2022-08-18T08:37:40;23.60;99.90
51996;DHT22;38010;53.264;6.592;2022-08-18T08:40:16;23.60;99.90
51996;DHT22;38010;53.264;6.592;2022-08-18T08:43:05;23.60;99.90
51996;DHT22;38010;53.264;6.592;2022-08-18T08:45:38;23.60;99.90
51996;DHT22;38010;53.264;6.592;2022-08-18T08:48:20;23.60;99.90
51996;DHT22;38010;53.264;6.592;2022-08-18T08:51:05;23.60;99.90
51996;DHT22;38010;53.264;6.592;2022-08-18T08:53:38;23.60;99.90
51996;DHT22;38010;53.264;6.592;2022-08-18T08:56:13;23.60;99.90
51996;DHT22;38010;53.264;6.592;2022-08-18T08:59:00;23.60;99.90
51996;DHT22;38010;53.264;6.592;2022-08-18T09:04:48;23.60;99.90
51996;DHT22;38010;53.264;6.592;2022-08-18T09:12:58;23.60;99.90
51996;DHT22;38010;53.264;6.592;2022-08-18T09:20:57;23.60;99.90
51996;DHT22;38010;53.264;6.592;2022-08-18T09:23:31;23.60;99.90
51996;DHT22;38010;53.264;6.592;2022-08-18T09:26:21;23.60;99.90
51996;DHT22;38010;53.264;6.592;2022-08-18T09:29:11;23.60;99.90
51996;DHT22;38010;53.264;6.592;2022-08-18T09:31:37;23.60;99.90
51996;DHT22;38010;53.264;6.592;2022-08-18T09:37:25;23.60;99.90
51996;DHT22;38010;53.264;6.592;2022-08-18T09:40:09;23.60;99.90
51996;DHT22;38010;53.264;6.592;2022-08-18T09:43:20;23.60;99.90
51996;DHT22;38010;53.264;6.592;2022-08-18T09:45:58;23.60;99.90
51996;DHT22;38010;53.264;6.592;2022-08-18T10:02:04;23.60;99.90
51996;DHT22;38010;53.264;6.592;2022-08-18T10:04:36;23.60;99.90
51996;DHT22;38010;53.264;6.592;2022-08-18T10:12:53;23.60;99.90
51996;DHT22;38010;53.264;6.592;2022-08-18T10:21:10;23.60;99.90
51996;DHT22;38010;53.264;6.592;2022-08-18T10:23:45;23.60;99.90
51996;DHT22;38010;53.264;6.592;2022-08-18T10:34:50;23.60;99.90
51996;DHT22;38010;53.264;6.592;2022-08-18T10:37:38;23.60;99.90
51996;DHT22;38010;53.264;6.592;2022-08-18T10:42:41;23.60;99.90
51996;DHT22;38010;53.264;6.592;2022-08-18T10:48:19;23.60;99.90
51996;DHT22;38010;53.264;6.592;2022-08-18T10:58:48;23.60;99.90
51996;DHT22;38010;53.264;6.592;2022-08-18T11:04:09;23.60;99.90
51996;DHT22;38010;53.264;6.592;2022-08-18T11:06:48;23.60;99.90
51996;DHT22;38010;53.264;6.592;2022-08-18T11:09:27;23.60;99.90
51996;DHT22;38010;53.264;6.592;2022-08-18T11:11:57;23.60;99.90
51996;DHT22;38010;53.264;6.592;2022-08-18T11:19:50;23.60;99.90
51996;DHT22;38010;53.264;6.592;2022-08-18T11:22:30;23.60;99.90
51996;DHT22;38010;53.264;6.592;2022-08-18T11:24:57;23.60;99.90
51996;DHT22;38010;53.264;6.592;2022-08-18T11:27:33;23.60;99.90
51996;DHT22;38010;53.264;6.592;2022-08-18T11:30:04;23.60;99.90
51996;DHT22;38010;53.264;6.592;2022-08-18T11:32:32;23.60;99.90
51996;DHT22;38010;53.264;6.592;2022-08-18T11:39:59;23.60;99.90
51996;DHT22;38010;53.264;6.592;2022-08-18T11:42:31;23.60;99.90
51996;DHT22;38010;53.264;6.592;2022-08-18T11:45:16;23.70;99.90
51996;DHT22;38010;53.264;6.592;2022-08-18T11:53:34;23.70;99.90
51996;DHT22;38010;53.264;6.592;2022-08-18T12:01:47;23.60;99.90
51996;DHT22;38010;53.264;6.592;2022-08-18T12:11:53;23.70;99.90
51996;DHT22;38010;53.264;6.592;2022-08-18T12:14:27;23.70;99.90
51996;DHT22;38010;53.264;6.592;2022-08-18T12:16:53;23.70;99.90
51996;DHT22;38010;53.264;6.592;2022-08-18T12:19:20;23.70;99.90
51996;DHT22;38010;53.264;6.592;2022-08-18T12:21:53;23.70;99.90
51996;DHT22;38010;53.264;6.592;2022-08-18T12:24:23;23.70;99.90
51996;DHT22;38010;53.264;6.592;2022-08-18T12:26:50;23.70;99.90
51996;DHT22;38010;53.264;6.592;2022-08-18T12:29:16;23.70;99.90
51996;DHT22;38010;53.264;6.592;2022-08-18T12:31:48;23.70;99.90
51996;DHT22;38010;53.264;6.592;2022-08-18T12:34:19;23.70;99.90
51996;DHT22;38010;53.264;6.592;2022-08-18T12:36:50;23.80;99.90
51996;DHT22;38010;53.264;6.592;2022-08-18T12:39:16;23.80;99.90
51996;DHT22;38010;53.264;6.592;2022-08-18T12:41:42;23.80;99.90
51996;DHT22;38010;53.264;6.592;2022-08-18T12:44:08;23.80;99.90
51996;DHT22;38010;53.264;6.592;2022-08-18T12:46:33;23.90;99.90
51996;DHT22;38010;53.264;6.592;2022-08-18T12:49:02;23.90;99.90
51996;DHT22;38010;53.264;6.592;2022-08-18T12:51:29;23.90;99.90
51996;DHT22;38010;53.264;6.592;2022-08-18T12:53:54;23.90;99.90
51996;DHT22;38010;53.264;6.592;2022-08-18T12:56:24;23.90;99.90
51996;DHT22;38010;53.264;6.592;2022-08-18T12:58:50;24.00;99.90
51996;DHT22;38010;53.264;6.592;2022-08-18T13:01:19;24.10;99.90
51996;DHT22;38010;53.264;6.592;2022-08-18T13:03:46;24.20;99.90
51996;DHT22;38010;53.264;6.592;2022-08-18T13:06:13;24.20;99.90
51996;DHT22;38010;53.264;6.592;2022-08-18T13:08:39;24.20;99.90
51996;DHT22;38010;53.264;6.592;2022-08-18T13:11:06;24.20;99.90
51996;DHT22;38010;53.264;6.592;2022-08-18T13:13:36;24.20;99.90
51996;DHT22;38010;53.264;6.592;2022-08-18T13:16:03;24.10;99.90
51996;DHT22;38010;53.264;6.592;2022-08-18T13:18:29;24.10;99.90
51996;DHT22;38010;53.264;6.592;2022-08-18T13:20:59;24.10;99.90
51996;DHT22;38010;53.264;6.592;2022-08-18T13:23:26;24.10;99.90
51996;DHT22;38010;53.264;6.592;2022-08-18T13:25:53;24.10;99.90
51996;DHT22;38010;53.264;6.592;2022-08-18T13:28:19;24.10;99.90
51996;DHT22;38010;53.264;6.592;2022-08-18T13:30:45;24.10;99.90
51996;DHT22;38010;53.264;6.592;2022-08-18T13:33:10;24.10;99.90
51996;DHT22;38010;53.264;6.592;2022-08-18T13:35:36;24.00;99.90
51996;DHT22;38010;53.264;6.592;2022-08-18T13:38:02;24.00;99.90
51996;DHT22;38010;53.264;6.592;2022-08-18T13:40:30;24.00;99.90
51996;DHT22;38010;53.264;6.592;2022-08-18T13:42:56;24.00;99.90
51996;DHT22;38010;53.264;6.592;2022-08-18T13:45:21;24.00;99.90
51996;DHT22;38010;53.264;6.592;2022-08-18T13:47:48;24.00;99.90
51996;DHT22;38010;53.264;6.592;2022-08-18T13:50:15;24.00;99.90
51996;DHT22;38010;53.264;6.592;2022-08-18T13:52:41;24.00;99.90
51996;DHT22;38010;53.264;6.592;2022-08-18T13:55:11;24.10;99.90
51996;DHT22;38010;53.264;6.592;2022-08-18T13:57:38;24.10;99.90
51996;DHT22;38010;53.264;6.592;2022-08-18T14:00:07;24.10;99.90
51996;DHT22;38010;53.264;6.592;2022-08-18T14:02:37;24.10;99.90
51996;DHT22;38010;53.264;6.592;2022-08-18T14:05:04;24.10;99.90
51996;DHT22;38010;53.264;6.592;2022-08-18T14:07:34;24.20;99.90
51996;DHT22;38010;53.264;6.592;2022-08-18T14:10:02;24.30;99.90
51996;DHT22;38010;53.264;6.592;2022-08-18T14:12:28;24.30;99.90
51996;DHT22;38010;53.264;6.592;2022-08-18T14:14:54;24.30;99.90
51996;DHT22;38010;53.264;6.592;2022-08-18T14:17:22;24.30;99.90
51996;DHT22;38010;53.264;6.592;2022-08-18T14:19:50;24.30;99.90
51996;DHT22;38010;53.264;6.592;2022-08-18T14:22:34;24.40;99.90
51996;DHT22;38010;53.264;6.592;2022-08-18T14:25:19;24.50;99.90
51996;DHT22;38010;53.264;6.592;2022-08-18T14:28:03;24.60;99.90
51996;DHT22;38010;53.264;6.592;2022-08-18T14:30:29;24.70;99.90
51996;DHT22;38010;53.264;6.592;2022-08-18T14:32:57;24.70;99.90
51996;DHT22;38010;53.264;6.592;2022-08-18T14:35:23;24.80;99.90
51996;DHT22;38010;53.264;6.592;2022-08-18T14:37:48;24.80;99.90
51996;DHT22;38010;53.264;6.592;2022-08-18T14:40:15;24.90;99.90
51996;DHT22;38010;53.264;6.592;2022-08-18T14:42:41;24.90;99.90
51996;DHT22;38010;53.264;6.592;2022-08-18T14:45:08;24.90;99.90
51996;DHT22;38010;53.264;6.592;2022-08-18T14:47:33;24.90;99.90
51996;DHT22;38010;53.264;6.592;2022-08-18T14:49:59;24.90;99.90
51996;DHT22;38010;53.264;6.592;2022-08-18T14:52:26;24.80;99.90
51996;DHT22;38010;53.264;6.592;2022-08-18T14:54:52;24.80;99.90
51996;DHT22;38010;53.264;6.592;2022-08-18T14:57:19;24.70;99.90
51996;DHT22;38010;53.264;6.592;2022-08-18T14:59:45;24.70;99.90
51996;DHT22;38010;53.264;6.592;2022-08-18T15:02:11;24.60;99.90
51996;DHT22;38010;53.264;6.592;2022-08-18T15:04:37;24.60;99.90
51996;DHT22;38010;53.264;6.592;2022-08-18T15:07:03;24.60;99.90
51996;DHT22;38010;53.264;6.592;2022-08-18T15:09:29;24.60;99.90
51996;DHT22;38010;53.264;6.592;2022-08-18T15:11:55;24.60;99.90
51996;DHT22;38010;53.264;6.592;2022-08-18T15:14:23;24.60;99.90
51996;DHT22;38010;53.264;6.592;2022-08-18T15:16:51;24.60;99.90
51996;DHT22;38010;53.264;6.592;2022-08-18T15:19:17;24.50;99.90
51996;DHT22;38010;53.264;6.592;2022-08-18T15:21:42;24.50;99.90
51996;DHT22;38010;53.264;6.592;2022-08-18T15:24:27;24.50;99.90
51996;DHT22;38010;53.264;6.592;2022-08-18T15:27:11;24.50;99.90
51996;DHT22;38010;53.264;6.592;2022-08-18T15:29:37;24.50;99.90
51996;DHT22;38010;53.264;6.592;2022-08-18T15:32:03;24.40;99.90
51996;DHT22;38010;53.264;6.592;2022-08-18T15:34:29;24.40;99.90
51996;DHT22;38010;53.264;6.592;2022-08-18T15:36:55;24.50;99.90
51996;DHT22;38010;53.264;6.592;2022-08-18T15:39:22;24.50;99.90
51996;DHT22;38010;53.264;6.592;2022-08-18T15:41:47;24.50;99.90
51996;DHT22;38010;53.264;6.592;2022-08-18T15:44:18;24.50;99.90
51996;DHT22;38010;53.264;6.592;2022-08-18T15:46:44;24.50;99.90
51996;DHT22;38010;53.264;6.592;2022-08-18T15:49:11;24.50;99.90
51996;DHT22;38010;53.264;6.592;2022-08-18T15:51:39;24.50;99.90
51996;DHT22;38010;53.264;6.592;2022-08-18T15:54:09;24.50;99.90
51996;DHT22;38010;53.264;6.592;2022-08-18T15:56:35;24.40;99.90
51996;DHT22;38010;53.264;6.592;2022-08-18T15:59:02;24.40;99.90
51996;DHT22;38010;53.264;6.592;2022-08-18T16:01:35;24.40;99.90
51996;DHT22;38010;53.264;6.592;2022-08-18T16:04:03;24.40;99.90
51996;DHT22;38010;53.264;6.592;2022-08-18T16:06:30;24.40;99.90
51996;DHT22;38010;53.264;6.592;2022-08-18T16:08:56;24.40;99.90
51996;DHT22;38010;53.264;6.592;2022-08-18T16:11:22;24.40;99.90
51996;DHT22;38010;53.264;6.592;2022-08-18T16:13:49;24.30;99.90
51996;DHT22;38010;53.264;6.592;2022-08-18T16:16:17;24.30;99.90
51996;DHT22;38010;53.264;6.592;2022-08-18T16:18:43;24.30;99.90
51996;DHT22;38010;53.264;6.592;2022-08-18T16:21:12;24.30;99.90
51996;DHT22;38010;53.264;6.592;2022-08-18T16:23:40;24.30;99.90
51996;DHT22;38010;53.264;6.592;2022-08-18T16:26:06;24.30;99.90
51996;DHT22;38010;53.264;6.592;2022-08-18T16:28:33;24.30;99.90
51996;DHT22;38010;53.264;6.592;2022-08-18T16:30:59;24.30;99.90
51996;DHT22;38010;53.264;6.592;2022-08-18T16:33:25;24.30;99.90
51996;DHT22;38010;53.264;6.592;2022-08-18T16:35:51;24.30;99.90
51996;DHT22;38010;53.264;6.592;2022-08-18T16:38:17;24.20;99.90
51996;DHT22;38010;53.264;6.592;2022-08-18T16:40:44;24.20;99.90
51996;DHT22;38010;53.264;6.592;2022-08-18T16:43:10;24.20;99.90
51996;DHT22;38010;53.264;6.592;2022-08-18T16:45:38;24.20;99.90
51996;DHT22;38010;53.264;6.592;2022-08-18T16:48:07;24.30;99.90
51996;DHT22;38010;53.264;6.592;2022-08-18T16:50:35;24.20;99.90
51996;DHT22;38010;53.264;6.592;2022-08-18T16:53:02;24.20;99.90
51996;DHT22;38010;53.264;6.592;2022-08-18T16:55:29;24.20;99.90
51996;DHT22;38010;53.264;6.592;2022-08-18T16:57:55;24.20;99.90
51996;DHT22;38010;53.264;6.592;2022-08-18T17:00:40;24.20;99.90
51996;DHT22;38010;53.264;6.592;2022-08-18T17:03:24;24.20;99.90
51996;DHT22;38010;53.264;6.592;2022-08-18T17:06:11;24.20;99.90
51996;DHT22;38010;53.264;6.592;2022-08-18T17:08:38;24.20;99.90
51996;DHT22;38010;53.264;6.592;2022-08-18T17:11:06;24.20;99.90
51996;DHT22;38010;53.264;6.592;2022-08-18T17:13:34;24.10;99.90
51996;DHT22;38010;53.264;6.592;2022-08-18T17:16:01;24.20;99.90
51996;DHT22;38010;53.264;6.592;2022-08-18T17:18:27;24.20;99.90
51996;DHT22;38010;53.264;6.592;2022-08-18T17:20:54;24.20;99.90
51996;DHT22;38010;53.264;6.592;2022-08-18T17:23:19;24.20;99.90
51996;DHT22;38010;53.264;6.592;2022-08-18T17:25:46;24.10;99.90
51996;DHT22;38010;53.264;6.592;2022-08-18T17:28:13;24.10;99.90
51996;DHT22;38010;53.264;6.592;2022-08-18T17:30:45;24.10;99.90
51996;DHT22;38010;53.264;6.592;2022-08-18T17:33:15;24.10;99.90
51996;DHT22;38010;53.264;6.592;2022-08-18T17:35:45;24.10;99.90
51996;DHT22;38010;53.264;6.592;2022-08-18T17:38:19;24.10;99.90
51996;DHT22;38010;53.264;6.592;2022-08-18T17:40:51;24.10;99.90
51996;DHT22;38010;53.264;6.592;2022-08-18T17:43:24;24.10;99.90
51996;DHT22;38010;53.264;6.592;2022-08-18T17:46:37;24.10;99.90
51996;DHT22;38010;53.264;6.592;2022-08-18T17:51:36;24.10;99.90
51996;DHT22;38010;53.264;6.592;2022-08-18T17:57:01;24.10;99.90
51996;DHT22;38010;53.264;6.592;2022-08-18T18:00:07;24.10;99.90
51996;DHT22;38010;53.264;6.592;2022-08-18T18:02:35;24.10;99.90
51996;DHT22;38010;53.264;6.592;2022-08-18T18:05:05;24.00;99.90
51996;DHT22;38010;53.264;6.592;2022-08-18T18:10:26;24.10;99.90
51996;DHT22;38010;53.264;6.592;2022-08-18T18:15:46;24.10;99.90
51996;DHT22;38010;53.264;6.592;2022-08-18T18:18:20;24.00;99.90